Check out our new PWSWeather beta!
PWSweather.com
Personal Weather Stations
Station Observations

SkegnessGB

Lat: 53.147585, Lon: 0.345774

Elevation: 18

Station Type: Fine Offset WH3080

http://www.skegnessweather.info/

High Low Average
Temperature 45.0°F7.2°C 37.9°F3.3°C 41.7°F5.4°C
Dew Point 42.1°F5.6°C 34.3°F1.3°C 37.4°F3.0°C
Winds 14.2 mph 22.9 kmh 0.3 mph 0.5 kmh 6.0 mph SW9.7 kmh SW
Wind Gusts 16.7 mph26.9 kmh 1.7 mph2.7 kmh 8.0 mph12.9 kmh
Humidity 92% 72% 85%
Pressure 28.88 in978.0 mb 28.59 in968.2 mb -
Precipitation 0.00 in0.0 mm - -
Hour Temp Dew Point Humidity Winds Wind Gusts Pressure Precip Precip Rate Daily Precip Total
12:00 AM 42.4°F5.8°C 40.0°F4.4°C 91% 4.6 mph SW7.4 kmh SW 4.9 mph7.9 kmh 28.61 in968.8 mb 0.00 in0.0 mm 0.00 in0.0 mm 0.00 in0.0 mm
12:10 AM 42.4°F5.8°C 40.0°F4.4°C 91% 3.8 mph SSW6.1 kmh SSW 4.2 mph6.8 kmh 28.61 in968.8 mb 0.00 in0.0 mm 0.00 in0.0 mm 0.00 in0.0 mm
12:20 AM 42.4°F5.8°C 40.0°F4.4°C 91% 3.6 mph SSW5.8 kmh SSW 4.2 mph6.8 kmh 28.61 in968.8 mb 0.00 in0.0 mm 0.00 in0.0 mm 0.00 in0.0 mm
12:30 AM 42.4°F5.8°C 40.0°F4.4°C 91% 3.3 mph S5.3 kmh S 4.2 mph6.8 kmh 28.60 in968.5 mb 0.00 in0.0 mm 0.00 in0.0 mm 0.00 in0.0 mm
12:40 AM 42.4°F5.8°C 40.0°F4.4°C 91% 3.2 mph NW5.1 kmh NW 4.2 mph6.8 kmh 28.60 in968.5 mb 0.00 in0.0 mm 0.00 in0.0 mm 0.00 in0.0 mm
12:50 AM 42.4°F5.8°C 40.0°F4.4°C 91% 2.8 mph S4.5 kmh S 3.4 mph5.5 kmh 28.60 in968.5 mb 0.00 in0.0 mm 0.00 in0.0 mm 0.00 in0.0 mm
01:00 AM 42.3°F5.7°C 39.8°F4.3°C 91% 2.4 mph WSW3.9 kmh WSW 3.4 mph5.5 kmh 28.60 in968.5 mb 0.00 in0.0 mm 0.00 in0.0 mm 0.00 in0.0 mm
01:10 AM 42.3°F5.7°C 39.8°F4.3°C 91% 1.2 mph SW1.9 kmh SW 1.7 mph2.7 kmh 28.60 in968.5 mb 0.00 in0.0 mm 0.00 in0.0 mm 0.00 in0.0 mm
01:20 AM 42.1°F5.6°C 39.6°F4.2°C 91% 0.9 mph WSW1.4 kmh WSW 1.7 mph2.7 kmh 28.60 in968.5 mb 0.00 in0.0 mm 0.00 in0.0 mm 0.00 in0.0 mm
01:30 AM 42.1°F5.6°C 39.6°F4.2°C 91% 0.5 mph S0.8 kmh S 1.7 mph2.7 kmh 28.59 in968.2 mb 0.00 in0.0 mm 0.00 in0.0 mm 0.00 in0.0 mm
01:40 AM 41.9°F5.5°C 39.5°F4.2°C 91% 0.4 mph SSW0.6 kmh SSW 1.7 mph2.7 kmh 28.59 in968.2 mb 0.00 in0.0 mm 0.00 in0.0 mm 0.00 in0.0 mm
01:50 AM 41.9°F5.5°C 39.5°F4.2°C 91% 0.3 mph SW0.5 kmh SW 1.7 mph2.7 kmh 28.59 in968.2 mb 0.00 in0.0 mm 0.00 in0.0 mm 0.00 in0.0 mm
02:00 AM 41.7°F5.4°C 39.3°F4.1°C 91% 0.8 mph SW1.3 kmh SW 1.7 mph2.7 kmh 28.59 in968.2 mb 0.00 in0.0 mm 0.00 in0.0 mm 0.00 in0.0 mm
02:10 AM 41.7°F5.4°C 39.3°F4.1°C 91% 1.0 mph SSW1.6 kmh SSW 1.7 mph2.7 kmh 28.59 in968.2 mb 0.00 in0.0 mm 0.00 in0.0 mm 0.00 in0.0 mm
02:20 AM 41.7°F5.4°C 39.3°F4.1°C 91% 1.3 mph SW2.1 kmh SW 2.5 mph4.0 kmh 28.59 in968.2 mb 0.00 in0.0 mm 0.00 in0.0 mm 0.00 in0.0 mm
02:30 AM 41.7°F5.4°C 39.3°F4.1°C 91% 1.5 mph SSW2.4 kmh SSW 2.5 mph4.0 kmh 28.59 in968.2 mb 0.00 in0.0 mm 0.00 in0.0 mm 0.00 in0.0 mm
02:40 AM 41.5°F5.3°C 39.1°F3.9°C 91% 2.0 mph WSW3.2 kmh WSW 3.4 mph5.5 kmh 28.59 in968.2 mb 0.00 in0.0 mm 0.00 in0.0 mm 0.00 in0.0 mm
02:50 AM 41.2°F5.1°C 38.8°F3.8°C 91% 1.2 mph WSW1.9 kmh WSW 2.5 mph4.0 kmh 28.59 in968.2 mb 0.00 in0.0 mm 0.00 in0.0 mm 0.00 in0.0 mm
03:00 AM 40.8°F4.9°C 38.4°F3.6°C 91% 0.7 mph SSW1.1 kmh SSW 2.5 mph4.0 kmh 28.59 in968.2 mb 0.00 in0.0 mm 0.00 in0.0 mm 0.00 in0.0 mm
03:10 AM 40.8°F4.9°C 38.4°F3.6°C 91% 1.3 mph SW2.1 kmh SW 1.7 mph2.7 kmh 28.59 in968.2 mb 0.00 in0.0 mm 0.00 in0.0 mm 0.00 in0.0 mm
03:20 AM 40.6°F4.8°C 38.2°F3.4°C 91% 2.0 mph SSW3.2 kmh SSW 2.5 mph4.0 kmh 28.60 in968.5 mb 0.00 in0.0 mm 0.00 in0.0 mm 0.00 in0.0 mm
03:30 AM 40.6°F4.8°C 38.2°F3.4°C 91% 2.7 mph SW4.3 kmh SW 3.4 mph5.5 kmh 28.60 in968.5 mb 0.00 in0.0 mm 0.00 in0.0 mm 0.00 in0.0 mm
03:40 AM 40.3°F4.6°C 37.9°F3.3°C 91% 1.6 mph WSW2.6 kmh WSW 2.5 mph4.0 kmh 28.60 in968.5 mb 0.00 in0.0 mm 0.00 in0.0 mm 0.00 in0.0 mm
03:50 AM 40.1°F4.5°C 37.7°F3.2°C 91% 2.3 mph SW3.7 kmh SW 2.5 mph4.0 kmh 28.60 in968.5 mb 0.00 in0.0 mm 0.00 in0.0 mm 0.00 in0.0 mm
04:00 AM 39.6°F4.2°C 37.2°F2.9°C 91% 0.6 mph SW1.0 kmh SW 1.7 mph2.7 kmh 28.61 in968.8 mb 0.00 in0.0 mm 0.00 in0.0 mm 0.00 in0.0 mm
04:10 AM 39.2°F4.0°C 36.8°F2.7°C 91% 0.9 mph SSW1.4 kmh SSW 2.5 mph4.0 kmh 28.61 in968.8 mb 0.00 in0.0 mm 0.00 in0.0 mm 0.00 in0.0 mm
04:20 AM 39.0°F3.9°C 36.6°F2.6°C 91% 2.0 mph SSW3.2 kmh SSW 3.4 mph5.5 kmh 28.61 in968.8 mb 0.00 in0.0 mm 0.00 in0.0 mm 0.00 in0.0 mm
04:30 AM 38.7°F3.7°C 36.3°F2.4°C 91% 1.6 mph W2.6 kmh W 3.4 mph5.5 kmh 28.61 in968.8 mb 0.00 in0.0 mm 0.00 in0.0 mm 0.00 in0.0 mm
04:40 AM 38.8°F3.8°C 36.4°F2.4°C 91% 2.4 mph WSW3.9 kmh WSW 3.4 mph5.5 kmh 28.62 in969.2 mb 0.00 in0.0 mm 0.00 in0.0 mm 0.00 in0.0 mm
04:50 AM 39.2°F4.0°C 36.8°F2.7°C 91% 2.7 mph W4.3 kmh W 3.4 mph5.5 kmh 28.62 in969.2 mb 0.00 in0.0 mm 0.00 in0.0 mm 0.00 in0.0 mm
05:00 AM 39.2°F4.0°C 36.8°F2.7°C 91% 0.8 mph WSW1.3 kmh WSW 2.5 mph4.0 kmh 28.63 in969.5 mb 0.00 in0.0 mm 0.00 in0.0 mm 0.00 in0.0 mm
05:10 AM 39.4°F4.1°C 37.0°F2.8°C 91% 1.9 mph SW3.1 kmh SW 2.5 mph4.0 kmh 28.63 in969.5 mb 0.00 in0.0 mm 0.00 in0.0 mm 0.00 in0.0 mm
05:20 AM 39.4°F4.1°C 37.0°F2.8°C 91% 2.4 mph WSW3.9 kmh WSW 3.4 mph5.5 kmh 28.64 in969.9 mb 0.00 in0.0 mm 0.00 in0.0 mm 0.00 in0.0 mm
05:30 AM 39.6°F4.2°C 37.2°F2.9°C 91% 1.3 mph SW2.1 kmh SW 2.5 mph4.0 kmh 28.64 in969.9 mb 0.00 in0.0 mm 0.00 in0.0 mm 0.00 in0.0 mm
05:40 AM 39.7°F4.3°C 37.3°F2.9°C 91% 1.2 mph SW1.9 kmh SW 2.5 mph4.0 kmh 28.65 in970.2 mb 0.00 in0.0 mm 0.00 in0.0 mm 0.00 in0.0 mm
05:50 AM 39.7°F4.3°C 37.3°F2.9°C 91% 1.4 mph SSW2.3 kmh SSW 2.5 mph4.0 kmh 28.65 in970.2 mb 0.00 in0.0 mm 0.00 in0.0 mm 0.00 in0.0 mm
06:00 AM 39.4°F4.1°C 37.0°F2.8°C 91% 1.3 mph SW2.1 kmh SW 2.5 mph4.0 kmh 28.66 in970.5 mb 0.00 in0.0 mm 0.00 in0.0 mm 0.00 in0.0 mm
06:10 AM 39.2°F4.0°C 36.8°F2.7°C 91% 1.7 mph SW2.7 kmh SW 2.5 mph4.0 kmh 28.66 in970.5 mb 0.00 in0.0 mm 0.00 in0.0 mm 0.00 in0.0 mm
06:20 AM 39.0°F3.9°C 36.6°F2.6°C 91% 2.4 mph S3.9 kmh S 3.4 mph5.5 kmh 28.67 in970.9 mb 0.00 in0.0 mm 0.00 in0.0 mm 0.00 in0.0 mm
06:30 AM 38.8°F3.8°C 36.4°F2.4°C 91% 2.8 mph SW4.5 kmh SW 4.2 mph6.8 kmh 28.67 in970.9 mb 0.00 in0.0 mm 0.00 in0.0 mm 0.00 in0.0 mm
06:40 AM 38.7°F3.7°C 36.3°F2.4°C 91% 2.3 mph SW3.7 kmh SW 4.2 mph6.8 kmh 28.68 in971.2 mb 0.00 in0.0 mm 0.00 in0.0 mm 0.00 in0.0 mm
06:50 AM 38.5°F3.6°C 36.1°F2.3°C 91% 2.6 mph SSW4.2 kmh SSW 3.4 mph5.5 kmh 28.68 in971.2 mb 0.00 in0.0 mm 0.00 in0.0 mm 0.00 in0.0 mm
07:00 AM 38.3°F3.5°C 35.9°F2.2°C 91% 2.7 mph WSW4.3 kmh WSW 3.4 mph5.5 kmh 28.68 in971.2 mb 0.00 in0.0 mm 0.00 in0.0 mm 0.00 in0.0 mm
07:10 AM 38.1°F3.4°C 35.7°F2.1°C 91% 2.0 mph SW3.2 kmh SW 4.2 mph6.8 kmh 28.69 in971.6 mb 0.00 in0.0 mm 0.00 in0.0 mm 0.00 in0.0 mm
07:20 AM 38.1°F3.4°C 35.7°F2.1°C 91% 4.0 mph W6.4 kmh W 4.9 mph7.9 kmh 28.70 in971.9 mb 0.00 in0.0 mm 0.00 in0.0 mm 0.00 in0.0 mm
07:30 AM 38.1°F3.4°C 35.7°F2.1°C 91% 3.2 mph SW5.1 kmh SW 3.4 mph5.5 kmh 28.70 in971.9 mb 0.00 in0.0 mm 0.00 in0.0 mm 0.00 in0.0 mm
07:40 AM 37.9°F3.3°C 35.5°F1.9°C 91% 3.5 mph SW5.6 kmh SW 4.9 mph7.9 kmh 28.70 in971.9 mb 0.00 in0.0 mm 0.00 in0.0 mm 0.00 in0.0 mm
07:50 AM 37.9°F3.3°C 35.5°F1.9°C 91% 4.1 mph SW6.6 kmh SW 7.6 mph12.2 kmh 28.71 in972.2 mb 0.00 in0.0 mm 0.00 in0.0 mm 0.00 in0.0 mm
08:00 AM 37.9°F3.3°C 35.5°F1.9°C 91% 4.8 mph S7.7 kmh S 5.9 mph9.5 kmh 28.71 in972.2 mb 0.00 in0.0 mm 0.00 in0.0 mm 0.00 in0.0 mm
08:10 AM 38.1°F3.4°C 35.7°F2.1°C 91% 3.2 mph SW5.1 kmh SW 4.2 mph6.8 kmh 28.72 in972.6 mb 0.00 in0.0 mm 0.00 in0.0 mm 0.00 in0.0 mm
08:20 AM 37.9°F3.3°C 35.5°F1.9°C 91% 2.3 mph WSW3.7 kmh WSW 4.2 mph6.8 kmh 28.73 in972.9 mb 0.00 in0.0 mm 0.00 in0.0 mm 0.00 in0.0 mm
08:30 AM 38.1°F3.4°C 35.7°F2.1°C 91% 3.3 mph WSW5.3 kmh WSW 4.2 mph6.8 kmh 28.73 in972.9 mb 0.00 in0.0 mm 0.00 in0.0 mm 0.00 in0.0 mm
08:40 AM 37.9°F3.3°C 35.5°F1.9°C 91% 3.0 mph SW4.8 kmh SW 3.4 mph5.5 kmh 28.74 in973.2 mb 0.00 in0.0 mm 0.00 in0.0 mm 0.00 in0.0 mm
08:50 AM 37.9°F3.3°C 35.5°F1.9°C 91% 2.6 mph S4.2 kmh S 2.5 mph4.0 kmh 28.75 in973.6 mb 0.00 in0.0 mm 0.00 in0.0 mm 0.00 in0.0 mm
09:00 AM 37.9°F3.3°C 35.5°F1.9°C 91% 1.2 mph SW1.9 kmh SW 2.5 mph4.0 kmh 28.75 in973.6 mb 0.00 in0.0 mm 0.00 in0.0 mm 0.00 in0.0 mm
09:10 AM 38.1°F3.4°C 35.7°F2.1°C 91% 1.3 mph WSW2.1 kmh WSW 2.5 mph4.0 kmh 28.76 in973.9 mb 0.00 in0.0 mm 0.00 in0.0 mm 0.00 in0.0 mm
09:20 AM 38.7°F3.7°C 36.3°F2.4°C 91% 2.9 mph SW4.7 kmh SW 4.2 mph6.8 kmh 28.77 in974.3 mb 0.00 in0.0 mm 0.00 in0.0 mm 0.00 in0.0 mm
09:30 AM 39.2°F4.0°C 36.8°F2.7°C 91% 2.3 mph SW3.7 kmh SW 4.2 mph6.8 kmh 28.77 in974.3 mb 0.00 in0.0 mm 0.00 in0.0 mm 0.00 in0.0 mm
09:40 AM 39.7°F4.3°C 37.3°F2.9°C 91% 2.5 mph WSW4.0 kmh WSW 4.9 mph7.9 kmh 28.78 in974.6 mb 0.00 in0.0 mm 0.00 in0.0 mm 0.00 in0.0 mm
09:50 AM 40.3°F4.6°C 37.9°F3.3°C 91% 2.5 mph WNW4.0 kmh WNW 3.4 mph5.5 kmh 28.78 in974.6 mb 0.00 in0.0 mm 0.00 in0.0 mm 0.00 in0.0 mm
10:00 AM 41.2°F5.1°C 39.0°F3.9°C 92% 4.5 mph SW7.2 kmh SW 5.9 mph9.5 kmh 28.79 in974.9 mb 0.00 in0.0 mm 0.00 in0.0 mm 0.00 in0.0 mm
10:10 AM 42.1°F5.6°C 39.9°F4.4°C 92% 5.8 mph SW9.3 kmh SW 7.6 mph12.2 kmh 28.79 in974.9 mb 0.00 in0.0 mm 0.00 in0.0 mm 0.00 in0.0 mm
10:20 AM 42.4°F5.8°C 40.3°F4.6°C 92% 6.5 mph NW10.5 kmh NW 8.4 mph13.5 kmh 28.79 in974.9 mb 0.00 in0.0 mm 0.00 in0.0 mm 0.00 in0.0 mm
10:30 AM 42.3°F5.7°C 40.1°F4.5°C 92% 7.1 mph WNW11.4 kmh WNW 9.1 mph14.6 kmh 28.79 in974.9 mb 0.00 in0.0 mm 0.00 in0.0 mm 0.00 in0.0 mm
10:40 AM 42.3°F5.7°C 40.1°F4.5°C 92% 8.6 mph SW13.8 kmh SW 9.1 mph14.6 kmh 28.79 in974.9 mb 0.00 in0.0 mm 0.00 in0.0 mm 0.00 in0.0 mm
10:50 AM 42.4°F5.8°C 40.3°F4.6°C 92% 9.4 mph SW15.1 kmh SW 10.1 mph16.3 kmh 28.80 in975.3 mb 0.00 in0.0 mm 0.00 in0.0 mm 0.00 in0.0 mm
11:00 AM 42.6°F5.9°C 40.5°F4.7°C 92% 8.8 mph WSW14.2 kmh WSW 10.8 mph17.4 kmh 28.80 in975.3 mb 0.00 in0.0 mm 0.00 in0.0 mm 0.00 in0.0 mm
11:10 AM 43.0°F6.1°C 40.8°F4.9°C 92% 10.5 mph N16.9 kmh N 11.8 mph19.0 kmh 28.80 in975.3 mb 0.00 in0.0 mm 0.00 in0.0 mm 0.00 in0.0 mm
11:20 AM 43.3°F6.3°C 41.2°F5.1°C 92% 8.1 mph SW13.0 kmh SW 8.4 mph13.5 kmh 28.80 in975.3 mb 0.00 in0.0 mm 0.00 in0.0 mm 0.00 in0.0 mm
11:30 AM 43.5°F6.4°C 41.4°F5.2°C 92% 9.8 mph SSW15.8 kmh SSW 13.3 mph21.4 kmh 28.80 in975.3 mb 0.00 in0.0 mm 0.00 in0.0 mm 0.00 in0.0 mm
11:40 AM 43.7°F6.5°C 41.5°F5.3°C 92% 9.2 mph SW14.8 kmh SW 10.1 mph16.3 kmh 28.80 in975.3 mb 0.00 in0.0 mm 0.00 in0.0 mm 0.00 in0.0 mm
11:50 AM 44.1°F6.7°C 41.9°F5.5°C 92% 10.2 mph S16.4 kmh S 14.3 mph23.0 kmh 28.80 in975.3 mb 0.00 in0.0 mm 0.00 in0.0 mm 0.00 in0.0 mm
12:00 PM 44.2°F6.8°C 42.1°F5.6°C 92% 9.0 mph SSW14.5 kmh SSW 10.8 mph17.4 kmh 28.80 in975.3 mb 0.00 in0.0 mm 0.00 in0.0 mm 0.00 in0.0 mm
12:10 PM 44.1°F6.7°C 41.6°F5.3°C 91% 9.8 mph WSW15.8 kmh WSW 10.8 mph17.4 kmh 28.80 in975.3 mb 0.00 in0.0 mm 0.00 in0.0 mm 0.00 in0.0 mm
12:20 PM 44.4°F6.9°C 42.0°F5.6°C 91% 10.9 mph WSW17.5 kmh WSW 16.0 mph25.7 kmh 28.80 in975.3 mb 0.00 in0.0 mm 0.00 in0.0 mm 0.00 in0.0 mm
12:30 PM 44.6°F7.0°C 40.1°F4.5°C 84% 10.7 mph WSW17.2 kmh WSW 16.7 mph26.9 kmh 28.82 in976.0 mb 0.00 in0.0 mm 0.00 in0.0 mm 0.00 in0.0 mm
12:40 PM 44.6°F7.0°C 39.8°F4.3°C 83% 9.8 mph SSW15.8 kmh SSW 12.5 mph20.1 kmh 28.82 in976.0 mb 0.00 in0.0 mm 0.00 in0.0 mm 0.00 in0.0 mm
12:50 PM 44.4°F6.9°C 40.8°F4.9°C 87% 9.2 mph SW14.8 kmh SW 14.3 mph23.0 kmh 28.82 in976.0 mb 0.00 in0.0 mm 0.00 in0.0 mm 0.00 in0.0 mm
01:00 PM 44.4°F6.9°C 40.5°F4.7°C 86% 9.8 mph WSW15.8 kmh WSW 14.3 mph23.0 kmh 28.82 in976.0 mb 0.00 in0.0 mm 0.00 in0.0 mm 0.00 in0.0 mm
01:10 PM 44.6°F7.0°C 38.8°F3.8°C 80% 11.8 mph W19.0 kmh W 15.0 mph24.1 kmh 28.82 in976.0 mb 0.00 in0.0 mm 0.00 in0.0 mm 0.00 in0.0 mm
01:20 PM 44.8°F7.1°C 38.3°F3.5°C 78% 12.0 mph SW19.3 kmh SW 15.0 mph24.1 kmh 28.83 in976.3 mb 0.00 in0.0 mm 0.00 in0.0 mm 0.00 in0.0 mm
01:30 PM 44.8°F7.1°C 37.7°F3.2°C 76% 11.7 mph SW18.8 kmh SW 14.3 mph23.0 kmh 28.83 in976.3 mb 0.00 in0.0 mm 0.00 in0.0 mm 0.00 in0.0 mm
01:40 PM 44.8°F7.1°C 37.3°F2.9°C 75% 9.6 mph SW15.4 kmh SW 10.1 mph16.3 kmh 28.83 in976.3 mb 0.00 in0.0 mm 0.00 in0.0 mm 0.00 in0.0 mm
01:50 PM 44.8°F7.1°C 37.3°F2.9°C 75% 7.8 mph WSW12.6 kmh WSW 11.8 mph19.0 kmh 28.84 in976.6 mb 0.00 in0.0 mm 0.00 in0.0 mm 0.00 in0.0 mm
02:00 PM 44.8°F7.1°C 37.0°F2.8°C 74% 8.5 mph WSW13.7 kmh WSW 10.8 mph17.4 kmh 28.84 in976.6 mb 0.00 in0.0 mm 0.00 in0.0 mm 0.00 in0.0 mm
02:10 PM 44.8°F7.1°C 37.0°F2.8°C 74% 8.7 mph S14.0 kmh S 10.8 mph17.4 kmh 28.84 in976.6 mb 0.00 in0.0 mm 0.00 in0.0 mm 0.00 in0.0 mm
02:20 PM 44.8°F7.1°C 37.0°F2.8°C 74% 7.5 mph WSW12.1 kmh WSW 9.1 mph14.6 kmh 28.84 in976.6 mb 0.00 in0.0 mm 0.00 in0.0 mm 0.00 in0.0 mm
02:30 PM 45.0°F7.2°C 37.2°F2.9°C 74% 9.5 mph W15.3 kmh W 13.3 mph21.4 kmh 28.85 in977.0 mb 0.00 in0.0 mm 0.00 in0.0 mm 0.00 in0.0 mm
02:40 PM 45.0°F7.2°C 36.8°F2.7°C 73% 10.7 mph SW17.2 kmh SW 13.3 mph21.4 kmh 28.85 in977.0 mb 0.00 in0.0 mm 0.00 in0.0 mm 0.00 in0.0 mm
02:50 PM 45.0°F7.2°C 36.8°F2.7°C 73% 8.1 mph SSW13.0 kmh SSW 8.4 mph13.5 kmh 28.85 in977.0 mb 0.00 in0.0 mm 0.00 in0.0 mm 0.00 in0.0 mm
03:00 PM 45.0°F7.2°C 36.8°F2.7°C 73% 10.7 mph WSW17.2 kmh WSW 14.3 mph23.0 kmh 28.84 in976.6 mb 0.00 in0.0 mm 0.00 in0.0 mm 0.00 in0.0 mm
03:10 PM 44.8°F7.1°C 36.7°F2.6°C 73% 12.3 mph SW19.8 kmh SW 13.3 mph21.4 kmh 28.84 in976.6 mb 0.00 in0.0 mm 0.00 in0.0 mm 0.00 in0.0 mm
03:20 PM 44.6°F7.0°C 36.1°F2.3°C 72% 11.8 mph SSW19.0 kmh SSW 13.3 mph21.4 kmh 28.85 in977.0 mb 0.00 in0.0 mm 0.00 in0.0 mm 0.00 in0.0 mm
03:30 PM 44.6°F7.0°C 36.1°F2.3°C 72% 11.9 mph S19.2 kmh S 13.3 mph21.4 kmh 28.85 in977.0 mb 0.00 in0.0 mm 0.00 in0.0 mm 0.00 in0.0 mm
03:40 PM 44.4°F6.9°C 38.3°F3.5°C 79% 11.9 mph NNW19.2 kmh NNW 14.3 mph23.0 kmh 28.85 in977.0 mb 0.00 in0.0 mm 0.00 in0.0 mm 0.00 in0.0 mm
03:50 PM 44.6°F7.0°C 36.1°F2.3°C 72% 12.0 mph S19.3 kmh S 13.3 mph21.4 kmh 28.86 in977.3 mb 0.00 in0.0 mm 0.00 in0.0 mm 0.00 in0.0 mm
04:00 PM 44.4°F6.9°C 38.3°F3.5°C 79% 10.1 mph WSW16.3 kmh WSW 12.5 mph20.1 kmh 28.86 in977.3 mb 0.00 in0.0 mm 0.00 in0.0 mm 0.00 in0.0 mm
04:10 PM 44.4°F6.9°C 38.3°F3.5°C 79% 12.1 mph SSE19.5 kmh SSE 13.3 mph21.4 kmh 28.87 in977.7 mb 0.00 in0.0 mm 0.00 in0.0 mm 0.00 in0.0 mm
04:20 PM 44.4°F6.9°C 38.3°F3.5°C 79% 14.2 mph SW22.9 kmh SW 16.7 mph26.9 kmh 28.87 in977.7 mb 0.00 in0.0 mm 0.00 in0.0 mm 0.00 in0.0 mm
04:30 PM 44.2°F6.8°C 38.1°F3.4°C 79% 11.6 mph SW18.7 kmh SW 13.3 mph21.4 kmh 28.87 in977.7 mb 0.00 in0.0 mm 0.00 in0.0 mm 0.00 in0.0 mm
04:40 PM 44.1°F6.7°C 38.3°F3.5°C 80% 11.5 mph SW18.5 kmh SW 12.5 mph20.1 kmh 28.87 in977.7 mb 0.00 in0.0 mm 0.00 in0.0 mm 0.00 in0.0 mm
04:50 PM 43.9°F6.6°C 38.1°F3.4°C 80% 10.4 mph SW16.7 kmh SW 12.5 mph20.1 kmh 28.87 in977.7 mb 0.00 in0.0 mm 0.00 in0.0 mm 0.00 in0.0 mm
05:00 PM 44.1°F6.7°C 38.3°F3.5°C 80% 12.0 mph SW19.3 kmh SW 14.3 mph23.0 kmh 28.87 in977.7 mb 0.00 in0.0 mm 0.00 in0.0 mm 0.00 in0.0 mm
05:10 PM 44.1°F6.7°C 38.0°F3.3°C 79% 11.0 mph S17.7 kmh S 12.5 mph20.1 kmh 28.87 in977.7 mb 0.00 in0.0 mm 0.00 in0.0 mm 0.00 in0.0 mm
05:20 PM 43.9°F6.6°C 37.8°F3.2°C 79% 11.3 mph SW18.2 kmh SW 13.3 mph21.4 kmh 28.87 in977.7 mb 0.00 in0.0 mm 0.00 in0.0 mm 0.00 in0.0 mm
05:30 PM 43.9°F6.6°C 37.8°F3.2°C 79% 11.0 mph SW17.7 kmh SW 10.8 mph17.4 kmh 28.87 in977.7 mb 0.00 in0.0 mm 0.00 in0.0 mm 0.00 in0.0 mm
05:40 PM 43.9°F6.6°C 37.5°F3.1°C 78% 10.9 mph W17.5 kmh W 11.8 mph19.0 kmh 28.87 in977.7 mb 0.00 in0.0 mm 0.00 in0.0 mm 0.00 in0.0 mm
05:50 PM 43.7°F6.5°C 37.3°F2.9°C 78% 9.6 mph SW15.4 kmh SW 10.8 mph17.4 kmh 28.87 in977.7 mb 0.00 in0.0 mm 0.00 in0.0 mm 0.00 in0.0 mm
06:00 PM 43.3°F6.3°C 36.9°F2.7°C 78% 10.4 mph WSW16.7 kmh WSW 13.3 mph21.4 kmh 28.86 in977.3 mb 0.00 in0.0 mm 0.00 in0.0 mm 0.00 in0.0 mm
06:10 PM 43.2°F6.2°C 36.8°F2.7°C 78% 10.6 mph S17.1 kmh S 12.5 mph20.1 kmh 28.87 in977.7 mb 0.00 in0.0 mm 0.00 in0.0 mm 0.00 in0.0 mm
06:20 PM 43.2°F6.2°C 37.1°F2.8°C 79% 9.7 mph WSW15.6 kmh WSW 10.1 mph16.3 kmh 28.87 in977.7 mb 0.00 in0.0 mm 0.00 in0.0 mm 0.00 in0.0 mm
06:30 PM 43.2°F6.2°C 37.1°F2.8°C 79% 11.0 mph WSW17.7 kmh WSW 10.8 mph17.4 kmh 28.87 in977.7 mb 0.00 in0.0 mm 0.00 in0.0 mm 0.00 in0.0 mm
06:40 PM 43.2°F6.2°C 37.1°F2.8°C 79% 11.1 mph SW17.9 kmh SW 10.8 mph17.4 kmh 28.88 in978.0 mb 0.00 in0.0 mm 0.00 in0.0 mm 0.00 in0.0 mm
06:50 PM 43.2°F6.2°C 37.1°F2.8°C 79% 11.7 mph SW18.8 kmh SW 13.3 mph21.4 kmh 28.88 in978.0 mb 0.00 in0.0 mm 0.00 in0.0 mm 0.00 in0.0 mm
07:00 PM 43.2°F6.2°C 36.8°F2.7°C 78% 10.1 mph SW16.3 kmh SW 10.8 mph17.4 kmh 28.88 in978.0 mb 0.00 in0.0 mm 0.00 in0.0 mm 0.00 in0.0 mm
07:10 PM 43.2°F6.2°C 36.8°F2.7°C 78% 12.4 mph SSE20.0 kmh SSE 10.8 mph17.4 kmh 28.88 in978.0 mb 0.00 in0.0 mm 0.00 in0.0 mm 0.00 in0.0 mm
07:20 PM 43.0°F6.1°C 36.6°F2.6°C 78% 9.8 mph SW15.8 kmh SW 10.8 mph17.4 kmh 28.87 in977.7 mb 0.00 in0.0 mm 0.00 in0.0 mm 0.00 in0.0 mm
07:30 PM 42.4°F5.8°C 36.1°F2.3°C 78% 7.9 mph S12.7 kmh S 12.5 mph20.1 kmh 28.86 in977.3 mb 0.00 in0.0 mm 0.00 in0.0 mm 0.00 in0.0 mm
07:40 PM 42.3°F5.7°C 35.9°F2.2°C 78% 10.2 mph SW16.4 kmh SW 16.0 mph25.7 kmh 28.86 in977.3 mb 0.00 in0.0 mm 0.00 in0.0 mm 0.00 in0.0 mm
07:50 PM 42.1°F5.6°C 35.7°F2.1°C 78% 7.4 mph WSW11.9 kmh WSW 7.6 mph12.2 kmh 28.86 in977.3 mb 0.00 in0.0 mm 0.00 in0.0 mm 0.00 in0.0 mm
08:00 PM 41.9°F5.5°C 35.5°F1.9°C 78% 7.3 mph SW11.7 kmh SW 8.4 mph13.5 kmh 28.87 in977.7 mb 0.00 in0.0 mm 0.00 in0.0 mm 0.00 in0.0 mm
08:10 PM 41.9°F5.5°C 35.5°F1.9°C 78% 7.5 mph S12.1 kmh S 8.4 mph13.5 kmh 28.86 in977.3 mb 0.00 in0.0 mm 0.00 in0.0 mm 0.00 in0.0 mm
08:20 PM 41.9°F5.5°C 35.2°F1.8°C 77% 7.3 mph SW11.7 kmh SW 9.1 mph14.6 kmh 28.86 in977.3 mb 0.00 in0.0 mm 0.00 in0.0 mm 0.00 in0.0 mm
08:30 PM 41.7°F5.4°C 35.0°F1.7°C 77% 9.4 mph SSW15.1 kmh SSW 9.1 mph14.6 kmh 28.85 in977.0 mb 0.00 in0.0 mm 0.00 in0.0 mm 0.00 in0.0 mm
08:40 PM 41.7°F5.4°C 35.0°F1.7°C 77% 8.0 mph SW12.9 kmh SW 8.4 mph13.5 kmh 28.84 in976.6 mb 0.00 in0.0 mm 0.00 in0.0 mm 0.00 in0.0 mm
08:50 PM 41.7°F5.4°C 35.0°F1.7°C 77% 8.3 mph SSW13.4 kmh SSW 9.1 mph14.6 kmh 28.85 in977.0 mb 0.00 in0.0 mm 0.00 in0.0 mm 0.00 in0.0 mm
09:00 PM 41.7°F5.4°C 34.7°F1.5°C 76% 7.3 mph SW11.7 kmh SW 9.1 mph14.6 kmh 28.84 in976.6 mb 0.00 in0.0 mm 0.00 in0.0 mm 0.00 in0.0 mm
09:10 PM 41.4°F5.2°C 34.4°F1.3°C 76% 7.4 mph SSW11.9 kmh SSW 9.1 mph14.6 kmh 28.86 in977.3 mb 0.00 in0.0 mm 0.00 in0.0 mm 0.00 in0.0 mm
09:20 PM 41.0°F5.0°C 34.3°F1.3°C 77% 7.3 mph S11.7 kmh S 7.6 mph12.2 kmh 28.86 in977.3 mb 0.00 in0.0 mm 0.00 in0.0 mm 0.00 in0.0 mm
09:30 PM 40.8°F4.9°C 34.5°F1.4°C 78% 7.0 mph NNW11.3 kmh NNW 10.8 mph17.4 kmh 28.86 in977.3 mb 0.00 in0.0 mm 0.00 in0.0 mm 0.00 in0.0 mm
09:40 PM 40.8°F4.9°C 34.5°F1.4°C 78% 6.7 mph NW10.8 kmh NW 9.1 mph14.6 kmh 28.85 in977.0 mb 0.00 in0.0 mm 0.00 in0.0 mm 0.00 in0.0 mm
09:50 PM 40.6°F4.8°C 34.6°F1.4°C 79% 5.3 mph SSW8.5 kmh SSW 7.6 mph12.2 kmh 28.86 in977.3 mb 0.00 in0.0 mm 0.00 in0.0 mm 0.00 in0.0 mm
10:00 PM 40.6°F4.8°C 34.6°F1.4°C 79% 5.4 mph SSE8.7 kmh SSE 5.9 mph9.5 kmh 28.86 in977.3 mb 0.00 in0.0 mm 0.00 in0.0 mm 0.00 in0.0 mm
10:10 PM 40.5°F4.7°C 34.5°F1.4°C 79% 6.6 mph WNW10.6 kmh WNW 6.6 mph10.6 kmh 28.86 in977.3 mb 0.00 in0.0 mm 0.00 in0.0 mm 0.00 in0.0 mm
10:20 PM 40.5°F4.7°C 34.8°F1.6°C 80% 5.8 mph S9.3 kmh S 6.6 mph10.6 kmh 28.86 in977.3 mb 0.00 in0.0 mm 0.00 in0.0 mm 0.00 in0.0 mm
10:30 PM 40.5°F4.7°C 34.8°F1.6°C 80% 7.9 mph SW12.7 kmh SW 9.1 mph14.6 kmh 28.86 in977.3 mb 0.00 in0.0 mm 0.00 in0.0 mm 0.00 in0.0 mm
10:40 PM 40.3°F4.6°C 34.6°F1.4°C 80% 7.2 mph SSW11.6 kmh SSW 8.4 mph13.5 kmh 28.86 in977.3 mb 0.00 in0.0 mm 0.00 in0.0 mm 0.00 in0.0 mm
10:50 PM 40.3°F4.6°C 34.6°F1.4°C 80% 5.7 mph SW9.2 kmh SW 6.6 mph10.6 kmh 28.86 in977.3 mb 0.00 in0.0 mm 0.00 in0.0 mm 0.00 in0.0 mm
11:00 PM 40.3°F4.6°C 34.6°F1.4°C 80% 6.4 mph NNW10.3 kmh NNW 5.9 mph9.5 kmh 28.86 in977.3 mb 0.00 in0.0 mm 0.00 in0.0 mm 0.00 in0.0 mm
11:10 PM 40.1°F4.5°C 34.4°F1.3°C 80% 7.0 mph S11.3 kmh S 9.1 mph14.6 kmh 28.85 in977.0 mb 0.00 in0.0 mm 0.00 in0.0 mm 0.00 in0.0 mm
11:20 PM 40.1°F4.5°C 34.4°F1.3°C 80% 5.0 mph S8.0 kmh S 5.9 mph9.5 kmh 28.86 in977.3 mb 0.00 in0.0 mm 0.00 in0.0 mm 0.00 in0.0 mm
11:30 PM 40.1°F4.5°C 34.7°F1.5°C 81% 5.5 mph SSW8.9 kmh SSW 6.6 mph10.6 kmh 28.85 in977.0 mb 0.00 in0.0 mm 0.00 in0.0 mm 0.00 in0.0 mm
11:40 PM 40.1°F4.5°C 34.7°F1.5°C 81% 6.0 mph SSW9.7 kmh SSW 6.6 mph10.6 kmh 28.85 in977.0 mb 0.00 in0.0 mm 0.00 in0.0 mm 0.00 in0.0 mm
11:50 PM 40.3°F4.6°C 34.9°F1.6°C 81% 6.6 mph SW10.6 kmh SW 6.6 mph10.6 kmh 28.85 in977.0 mb 0.00 in0.0 mm 0.00 in0.0 mm 0.00 in0.0 mm